sensor_id;sensor_type;location;lat;lon;timestamp;temperature;humidity
70079;DHT22;57451;52.496;13.456;2023-04-24T00:01:43;12.90;66.20
70079;DHT22;57451;52.496;13.456;2023-04-24T00:04:10;12.80;65.90
70079;DHT22;57451;52.496;13.456;2023-04-24T00:06:38;12.80;66.60
70079;DHT22;57451;52.496;13.456;2023-04-24T00:09:09;12.80;66.40
70079;DHT22;57451;52.496;13.456;2023-04-24T00:11:37;12.80;66.20
70079;DHT22;57451;52.496;13.456;2023-04-24T00:14:04;12.70;67.00
70079;DHT22;57451;52.496;13.456;2023-04-24T00:16:32;12.70;67.00
70079;DHT22;57451;52.496;13.456;2023-04-24T00:19:00;12.70;67.00
70079;DHT22;57451;52.496;13.456;2023-04-24T00:21:28;12.70;66.80
70079;DHT22;57451;52.496;13.456;2023-04-24T00:23:55;12.70;67.00
70079;DHT22;57451;52.496;13.456;2023-04-24T00:26:23;12.70;66.90
70079;DHT22;57451;52.496;13.456;2023-04-24T00:28:50;12.70;66.90
70079;DHT22;57451;52.496;13.456;2023-04-24T00:31:18;12.60;66.00
70079;DHT22;57451;52.496;13.456;2023-04-24T00:33:46;12.60;65.60
70079;DHT22;57451;52.496;13.456;2023-04-24T00:36:15;12.60;66.90
70079;DHT22;57451;52.496;13.456;2023-04-24T00:38:42;12.60;67.40
70079;DHT22;57451;52.496;13.456;2023-04-24T00:41:10;12.60;67.90
70079;DHT22;57451;52.496;13.456;2023-04-24T00:43:37;12.50;67.50
70079;DHT22;57451;52.496;13.456;2023-04-24T00:46:05;12.50;67.50
70079;DHT22;57451;52.496;13.456;2023-04-24T00:48:33;12.50;67.80
70079;DHT22;57451;52.496;13.456;2023-04-24T00:51:01;12.50;68.00
70079;DHT22;57451;52.496;13.456;2023-04-24T00:53:30;12.50;68.60
70079;DHT22;57451;52.496;13.456;2023-04-24T00:55:58;12.50;68.30
70079;DHT22;57451;52.496;13.456;2023-04-24T00:58:25;12.40;67.70
70079;DHT22;57451;52.496;13.456;2023-04-24T01:00:54;12.40;68.50
70079;DHT22;57451;52.496;13.456;2023-04-24T01:03:25;12.40;68.70
70079;DHT22;57451;52.496;13.456;2023-04-24T01:05:54;12.40;68.40
70079;DHT22;57451;52.496;13.456;2023-04-24T01:08:23;12.40;68.40
70079;DHT22;57451;52.496;13.456;2023-04-24T01:10:53;12.40;68.50
70079;DHT22;57451;52.496;13.456;2023-04-24T01:13:21;12.30;69.10
70079;DHT22;57451;52.496;13.456;2023-04-24T01:15:48;12.20;69.40
70079;DHT22;57451;52.496;13.456;2023-04-24T01:18:16;12.20;69.30
70079;DHT22;57451;52.496;13.456;2023-04-24T01:20:45;12.20;69.70
70079;DHT22;57451;52.496;13.456;2023-04-24T01:23:15;12.20;69.30
70079;DHT22;57451;52.496;13.456;2023-04-24T01:25:44;12.20;69.30
70079;DHT22;57451;52.496;13.456;2023-04-24T01:28:11;12.20;69.20
70079;DHT22;57451;52.496;13.456;2023-04-24T01:30:41;12.20;68.30
70079;DHT22;57451;52.496;13.456;2023-04-24T01:33:09;12.20;69.10
70079;DHT22;57451;52.496;13.456;2023-04-24T01:35:37;12.20;69.20
70079;DHT22;57451;52.496;13.456;2023-04-24T01:38:05;12.20;69.20
70079;DHT22;57451;52.496;13.456;2023-04-24T01:40:34;12.20;69.30
70079;DHT22;57451;52.496;13.456;2023-04-24T01:43:02;12.20;69.10
70079;DHT22;57451;52.496;13.456;2023-04-24T01:45:30;12.20;69.60
70079;DHT22;57451;52.496;13.456;2023-04-24T01:47:57;12.20;68.60
70079;DHT22;57451;52.496;13.456;2023-04-24T01:50:25;12.20;69.40
70079;DHT22;57451;52.496;13.456;2023-04-24T01:52:53;12.20;69.80
70079;DHT22;57451;52.496;13.456;2023-04-24T01:55:20;12.20;70.20
70079;DHT22;57451;52.496;13.456;2023-04-24T01:57:49;12.10;70.10
70079;DHT22;57451;52.496;13.456;2023-04-24T02:00:17;12.10;70.30
70079;DHT22;57451;52.496;13.456;2023-04-24T02:02:45;12.10;70.00
70079;DHT22;57451;52.496;13.456;2023-04-24T02:05:14;12.10;70.40
70079;DHT22;57451;52.496;13.456;2023-04-24T02:07:42;12.10;70.70
70079;DHT22;57451;52.496;13.456;2023-04-24T02:10:10;12.10;70.40
70079;DHT22;57451;52.496;13.456;2023-04-24T02:12:42;12.10;70.00
70079;DHT22;57451;52.496;13.456;2023-04-24T02:15:11;12.10;70.70
70079;DHT22;57451;52.496;13.456;2023-04-24T02:17:39;12.10;70.60
70079;DHT22;57451;52.496;13.456;2023-04-24T02:20:07;12.10;70.10
70079;DHT22;57451;52.496;13.456;2023-04-24T02:22:35;12.10;70.40
70079;DHT22;57451;52.496;13.456;2023-04-24T02:25:02;12.10;70.90
70079;DHT22;57451;52.496;13.456;2023-04-24T02:27:30;12.10;70.80
70079;DHT22;57451;52.496;13.456;2023-04-24T02:29:57;12.10;70.20
70079;DHT22;57451;52.496;13.456;2023-04-24T02:32:26;12.10;70.90
70079;DHT22;57451;52.496;13.456;2023-04-24T02:34:53;12.10;71.30
70079;DHT22;57451;52.496;13.456;2023-04-24T02:37:21;12.20;71.40
70079;DHT22;57451;52.496;13.456;2023-04-24T02:39:48;12.10;71.00
70079;DHT22;57451;52.496;13.456;2023-04-24T02:42:16;12.10;70.70
70079;DHT22;57451;52.496;13.456;2023-04-24T02:44:43;12.10;70.90
70079;DHT22;57451;52.496;13.456;2023-04-24T02:47:10;12.20;71.20
70079;DHT22;57451;52.496;13.456;2023-04-24T02:49:39;12.20;71.60
70079;DHT22;57451;52.496;13.456;2023-04-24T02:52:07;12.20;71.50
70079;DHT22;57451;52.496;13.456;2023-04-24T02:54:34;12.20;72.00
70079;DHT22;57451;52.496;13.456;2023-04-24T02:57:02;12.20;72.10
70079;DHT22;57451;52.496;13.456;2023-04-24T02:59:30;12.20;71.90
70079;DHT22;57451;52.496;13.456;2023-04-24T03:01:57;12.20;71.60
70079;DHT22;57451;52.496;13.456;2023-04-24T03:04:24;12.20;72.00
70079;DHT22;57451;52.496;13.456;2023-04-24T03:06:54;12.20;72.00
70079;DHT22;57451;52.496;13.456;2023-04-24T03:09:22;12.20;71.60
70079;DHT22;57451;52.496;13.456;2023-04-24T03:11:49;12.20;72.00
70079;DHT22;57451;52.496;13.456;2023-04-24T03:14:16;12.20;72.00
70079;DHT22;57451;52.496;13.456;2023-04-24T03:16:44;12.20;72.10
70079;DHT22;57451;52.496;13.456;2023-04-24T03:19:11;12.20;72.00
70079;DHT22;57451;52.496;13.456;2023-04-24T03:21:55;12.30;72.00
70079;DHT22;57451;52.496;13.456;2023-04-24T03:24:22;12.30;71.70
70079;DHT22;57451;52.496;13.456;2023-04-24T03:26:50;12.30;71.80
70079;DHT22;57451;52.496;13.456;2023-04-24T03:29:37;12.30;72.00
70079;DHT22;57451;52.496;13.456;2023-04-24T03:32:05;12.30;72.00
70079;DHT22;57451;52.496;13.456;2023-04-24T03:34:33;12.30;72.60
70079;DHT22;57451;52.496;13.456;2023-04-24T03:37:03;12.30;72.70
70079;DHT22;57451;52.496;13.456;2023-04-24T03:39:33;12.30;72.90
70079;DHT22;57451;52.496;13.456;2023-04-24T03:42:00;12.30;72.10
70079;DHT22;57451;52.496;13.456;2023-04-24T03:44:39;12.40;72.50
70079;DHT22;57451;52.496;13.456;2023-04-24T03:47:07;12.40;72.70
70079;DHT22;57451;52.496;13.456;2023-04-24T03:49:36;12.40;73.00
70079;DHT22;57451;52.496;13.456;2023-04-24T03:52:06;12.40;72.60
70079;DHT22;57451;52.496;13.456;2023-04-24T03:54:33;12.40;72.40
70079;DHT22;57451;52.496;13.456;2023-04-24T03:57:00;12.40;72.20
70079;DHT22;57451;52.496;13.456;2023-04-24T03:59:30;12.50;71.90
70079;DHT22;57451;52.496;13.456;2023-04-24T04:02:08;12.50;72.20
70079;DHT22;57451;52.496;13.456;2023-04-24T04:04:37;12.50;71.80
70079;DHT22;57451;52.496;13.456;2023-04-24T04:07:06;12.50;71.40
70079;DHT22;57451;52.496;13.456;2023-04-24T04:09:35;12.50;71.20
70079;DHT22;57451;52.496;13.456;2023-04-24T04:12:02;12.50;71.40
70079;DHT22;57451;52.496;13.456;2023-04-24T04:14:32;12.50;72.00
70079;DHT22;57451;52.496;13.456;2023-04-24T04:16:59;12.60;72.00
70079;DHT22;57451;52.496;13.456;2023-04-24T04:19:27;12.60;71.90
70079;DHT22;57451;52.496;13.456;2023-04-24T04:21:55;12.60;71.80
70079;DHT22;57451;52.496;13.456;2023-04-24T04:24:39;12.60;71.80
70079;DHT22;57451;52.496;13.456;2023-04-24T04:27:09;12.70;71.20
70079;DHT22;57451;52.496;13.456;2023-04-24T04:29:44;12.70;71.30
70079;DHT22;57451;52.496;13.456;2023-04-24T04:32:14;12.70;71.30
70079;DHT22;57451;52.496;13.456;2023-04-24T04:34:42;12.80;71.50
70079;DHT22;57451;52.496;13.456;2023-04-24T04:37:12;12.80;71.80
70079;DHT22;57451;52.496;13.456;2023-04-24T04:40:08;12.80;71.40
70079;DHT22;57451;52.496;13.456;2023-04-24T04:42:48;12.80;71.90
70079;DHT22;57451;52.496;13.456;2023-04-24T04:45:16;12.80;72.00
70079;DHT22;57451;52.496;13.456;2023-04-24T04:48:10;12.80;71.80
70079;DHT22;57451;52.496;13.456;2023-04-24T04:50:40;12.70;72.10
70079;DHT22;57451;52.496;13.456;2023-04-24T04:53:08;12.80;71.90
70079;DHT22;57451;52.496;13.456;2023-04-24T04:55:39;12.80;72.30
70079;DHT22;57451;52.496;13.456;2023-04-24T04:58:10;12.80;72.00
70079;DHT22;57451;52.496;13.456;2023-04-24T05:00:38;12.80;71.90
70079;DHT22;57451;52.496;13.456;2023-04-24T05:03:15;12.80;71.60
70079;DHT22;57451;52.496;13.456;2023-04-24T05:05:53;12.90;71.60
70079;DHT22;57451;52.496;13.456;2023-04-24T05:08:21;12.90;71.50
70079;DHT22;57451;52.496;13.456;2023-04-24T05:10:55;12.90;71.10
70079;DHT22;57451;52.496;13.456;2023-04-24T05:13:24;12.90;71.10
70079;DHT22;57451;52.496;13.456;2023-04-24T05:16:08;12.90;71.30
70079;DHT22;57451;52.496;13.456;2023-04-24T05:18:36;12.90;70.80
70079;DHT22;57451;52.496;13.456;2023-04-24T05:21:06;13.00;70.80
70079;DHT22;57451;52.496;13.456;2023-04-24T05:23:34;12.90;71.40
70079;DHT22;57451;52.496;13.456;2023-04-24T05:26:04;12.90;71.70
70079;DHT22;57451;52.496;13.456;2023-04-24T05:28:34;12.90;71.60
70079;DHT22;57451;52.496;13.456;2023-04-24T05:31:09;12.90;71.20
70079;DHT22;57451;52.496;13.456;2023-04-24T05:33:37;13.00;70.90
70079;DHT22;57451;52.496;13.456;2023-04-24T05:36:06;13.00;70.80
70079;DHT22;57451;52.496;13.456;2023-04-24T05:38:34;13.00;71.10
70079;DHT22;57451;52.496;13.456;2023-04-24T05:41:01;13.00;71.30
70079;DHT22;57451;52.496;13.456;2023-04-24T05:43:30;12.90;71.40
70079;DHT22;57451;52.496;13.456;2023-04-24T05:45:57;13.00;71.00
70079;DHT22;57451;52.496;13.456;2023-04-24T05:48:25;13.00;71.00
70079;DHT22;57451;52.496;13.456;2023-04-24T05:50:53;13.00;71.00
70079;DHT22;57451;52.496;13.456;2023-04-24T05:53:20;13.00;70.90
70079;DHT22;57451;52.496;13.456;2023-04-24T05:55:48;13.10;70.70
70079;DHT22;57451;52.496;13.456;2023-04-24T05:58:16;13.20;70.50
70079;DHT22;57451;52.496;13.456;2023-04-24T06:00:48;13.20;70.10
70079;DHT22;57451;52.496;13.456;2023-04-24T06:03:17;13.30;69.90
70079;DHT22;57451;52.496;13.456;2023-04-24T06:05:47;13.20;69.90
70079;DHT22;57451;52.496;13.456;2023-04-24T06:08:16;13.20;70.30
70079;DHT22;57451;52.496;13.456;2023-04-24T06:10:44;13.20;69.90
70079;DHT22;57451;52.496;13.456;2023-04-24T06:13:12;13.30;69.90
70079;DHT22;57451;52.496;13.456;2023-04-24T06:15:47;13.40;69.90
70079;DHT22;57451;52.496;13.456;2023-04-24T06:18:25;13.40;70.00
70079;DHT22;57451;52.496;13.456;2023-04-24T06:20:52;13.50;69.40
70079;DHT22;57451;52.496;13.456;2023-04-24T06:23:20;13.60;69.00
70079;DHT22;57451;52.496;13.456;2023-04-24T06:25:47;13.60;68.50
70079;DHT22;57451;52.496;13.456;2023-04-24T06:28:15;13.50;68.20
70079;DHT22;57451;52.496;13.456;2023-04-24T06:30:42;13.60;68.30
70079;DHT22;57451;52.496;13.456;2023-04-24T06:33:13;13.70;68.30
70079;DHT22;57451;52.496;13.456;2023-04-24T06:35:45;13.80;68.10
70079;DHT22;57451;52.496;13.456;2023-04-24T06:38:13;13.80;67.40
70079;DHT22;57451;52.496;13.456;2023-04-24T06:40:40;13.90;67.50
70079;DHT22;57451;52.496;13.456;2023-04-24T06:43:07;13.90;66.90
70079;DHT22;57451;52.496;13.456;2023-04-24T06:45:35;14.00;66.50
70079;DHT22;57451;52.496;13.456;2023-04-24T06:48:02;14.00;66.50
70079;DHT22;57451;52.496;13.456;2023-04-24T06:50:31;14.10;66.30
70079;DHT22;57451;52.496;13.456;2023-04-24T06:52:59;14.20;65.80
70079;DHT22;57451;52.496;13.456;2023-04-24T06:55:26;14.30;66.20
70079;DHT22;57451;52.496;13.456;2023-04-24T06:57:54;14.40;66.00
70079;DHT22;57451;52.496;13.456;2023-04-24T07:00:21;14.50;65.10
70079;DHT22;57451;52.496;13.456;2023-04-24T07:02:51;14.60;64.40
70079;DHT22;57451;52.496;13.456;2023-04-24T07:05:19;14.70;64.60
70079;DHT22;57451;52.496;13.456;2023-04-24T07:07:51;14.80;65.00
70079;DHT22;57451;52.496;13.456;2023-04-24T07:10:19;14.90;63.20
70079;DHT22;57451;52.496;13.456;2023-04-24T07:12:47;14.90;62.90
70079;DHT22;57451;52.496;13.456;2023-04-24T07:15:14;15.00;62.50
70079;DHT22;57451;52.496;13.456;2023-04-24T07:17:42;15.10;61.80
70079;DHT22;57451;52.496;13.456;2023-04-24T07:20:12;15.20;61.20
70079;DHT22;57451;52.496;13.456;2023-04-24T07:22:42;15.20;60.80
70079;DHT22;57451;52.496;13.456;2023-04-24T07:25:10;15.20;61.20
70079;DHT22;57451;52.496;13.456;2023-04-24T07:27:38;15.30;60.30
70079;DHT22;57451;52.496;13.456;2023-04-24T07:30:07;15.40;60.80
70079;DHT22;57451;52.496;13.456;2023-04-24T07:32:39;15.40;59.70
70079;DHT22;57451;52.496;13.456;2023-04-24T07:35:07;15.40;59.90
70079;DHT22;57451;52.496;13.456;2023-04-24T07:37:37;15.50;60.70
70079;DHT22;57451;52.496;13.456;2023-04-24T07:40:05;15.60;59.00
70079;DHT22;57451;52.496;13.456;2023-04-24T07:42:34;15.60;58.70
70079;DHT22;57451;52.496;13.456;2023-04-24T07:45:04;15.70;57.90
70079;DHT22;57451;52.496;13.456;2023-04-24T07:47:33;15.70;58.20
70079;DHT22;57451;52.496;13.456;2023-04-24T07:50:00;15.80;57.60
70079;DHT22;57451;52.496;13.456;2023-04-24T07:52:28;15.80;57.50
70079;DHT22;57451;52.496;13.456;2023-04-24T07:54:55;15.80;55.50
70079;DHT22;57451;52.496;13.456;2023-04-24T07:57:25;15.80;56.00
70079;DHT22;57451;52.496;13.456;2023-04-24T07:59:54;15.80;55.60
70079;DHT22;57451;52.496;13.456;2023-04-24T08:02:22;15.90;54.90
70079;DHT22;57451;52.496;13.456;2023-04-24T08:04:53;16.00;55.20
70079;DHT22;57451;52.496;13.456;2023-04-24T08:07:22;16.00;54.00
70079;DHT22;57451;52.496;13.456;2023-04-24T08:09:50;16.00;54.30
70079;DHT22;57451;52.496;13.456;2023-04-24T08:12:17;16.10;54.80
70079;DHT22;57451;52.496;13.456;2023-04-24T08:14:44;16.20;55.50
70079;DHT22;57451;52.496;13.456;2023-04-24T08:17:13;16.30;55.90
70079;DHT22;57451;52.496;13.456;2023-04-24T08:19:41;16.30;55.10
70079;DHT22;57451;52.496;13.456;2023-04-24T08:22:14;16.40;55.90
70079;DHT22;57451;52.496;13.456;2023-04-24T08:24:42;16.50;55.20
70079;DHT22;57451;52.496;13.456;2023-04-24T08:27:10;16.50;55.00
70079;DHT22;57451;52.496;13.456;2023-04-24T08:29:38;16.50;55.40
70079;DHT22;57451;52.496;13.456;2023-04-24T08:32:09;16.60;55.60
70079;DHT22;57451;52.496;13.456;2023-04-24T08:34:38;16.70;55.30
70079;DHT22;57451;52.496;13.456;2023-04-24T08:37:05;16.80;55.50
70079;DHT22;57451;52.496;13.456;2023-04-24T08:39:32;16.80;53.70
70079;DHT22;57451;52.496;13.456;2023-04-24T08:42:00;16.80;54.00
70079;DHT22;57451;52.496;13.456;2023-04-24T08:44:32;16.90;54.00
70079;DHT22;57451;52.496;13.456;2023-04-24T08:47:01;16.90;54.50
70079;DHT22;57451;52.496;13.456;2023-04-24T08:49:29;17.00;54.60
70079;DHT22;57451;52.496;13.456;2023-04-24T08:51:59;17.10;53.20
70079;DHT22;57451;52.496;13.456;2023-04-24T08:54:28;17.10;54.30
70079;DHT22;57451;52.496;13.456;2023-04-24T08:56:59;17.20;52.30
70079;DHT22;57451;52.496;13.456;2023-04-24T08:59:28;17.30;52.60
70079;DHT22;57451;52.496;13.456;2023-04-24T09:01:56;17.40;51.40
70079;DHT22;57451;52.496;13.456;2023-04-24T09:04:25;17.40;51.50
70079;DHT22;57451;52.496;13.456;2023-04-24T09:06:56;17.50;51.30
70079;DHT22;57451;52.496;13.456;2023-04-24T09:09:25;17.60;51.30
70079;DHT22;57451;52.496;13.456;2023-04-24T09:11:53;17.60;50.90
70079;DHT22;57451;52.496;13.456;2023-04-24T09:14:24;17.70;51.10
70079;DHT22;57451;52.496;13.456;2023-04-24T09:16:51;17.80;50.60
70079;DHT22;57451;52.496;13.456;2023-04-24T09:19:19;17.70;50.00
70079;DHT22;57451;52.496;13.456;2023-04-24T09:21:48;17.60;51.00
70079;DHT22;57451;52.496;13.456;2023-04-24T09:24:17;17.60;50.50
70079;DHT22;57451;52.496;13.456;2023-04-24T09:26:46;17.50;50.30
70079;DHT22;57451;52.496;13.456;2023-04-24T09:29:15;17.50;50.80
70079;DHT22;57451;52.496;13.456;2023-04-24T09:31:44;17.50;50.60
70079;DHT22;57451;52.496;13.456;2023-04-24T09:34:12;17.50;51.30
70079;DHT22;57451;52.496;13.456;2023-04-24T09:36:42;17.40;51.70
70079;DHT22;57451;52.496;13.456;2023-04-24T09:39:11;17.30;52.70
70079;DHT22;57451;52.496;13.456;2023-04-24T09:41:44;17.30;52.90
70079;DHT22;57451;52.496;13.456;2023-04-24T09:44:15;17.30;52.60
70079;DHT22;57451;52.496;13.456;2023-04-24T09:46:44;17.30;52.90
70079;DHT22;57451;52.496;13.456;2023-04-24T09:49:13;17.30;52.40
70079;DHT22;57451;52.496;13.456;2023-04-24T09:51:42;17.20;53.00
70079;DHT22;57451;52.496;13.456;2023-04-24T09:54:14;17.10;53.20
70079;DHT22;57451;52.496;13.456;2023-04-24T09:56:44;17.10;53.70
70079;DHT22;57451;52.496;13.456;2023-04-24T09:59:14;17.10;54.30
70079;DHT22;57451;52.496;13.456;2023-04-24T10:01:42;17.20;54.60
70079;DHT22;57451;52.496;13.456;2023-04-24T10:04:18;17.20;53.10
70079;DHT22;57451;52.496;13.456;2023-04-24T10:06:47;17.20;53.30
70079;DHT22;57451;52.496;13.456;2023-04-24T10:09:16;17.30;53.10
70079;DHT22;57451;52.496;13.456;2023-04-24T10:11:45;17.40;52.00
70079;DHT22;57451;52.496;13.456;2023-04-24T10:14:16;17.40;51.90
70079;DHT22;57451;52.496;13.456;2023-04-24T10:16:44;17.40;52.20
70079;DHT22;57451;52.496;13.456;2023-04-24T10:19:14;17.40;51.80
70079;DHT22;57451;52.496;13.456;2023-04-24T10:21:43;17.40;52.60
70079;DHT22;57451;52.496;13.456;2023-04-24T10:24:14;17.50;53.50
70079;DHT22;57451;52.496;13.456;2023-04-24T10:26:43;17.70;51.60
70079;DHT22;57451;52.496;13.456;2023-04-24T10:29:14;17.70;51.10
70079;DHT22;57451;52.496;13.456;2023-04-24T10:31:43;17.70;52.40
70079;DHT22;57451;52.496;13.456;2023-04-24T10:34:15;17.90;52.20
70079;DHT22;57451;52.496;13.456;2023-04-24T10:36:45;18.00;51.20
70079;DHT22;57451;52.496;13.456;2023-04-24T10:39:14;18.20;51.60
70079;DHT22;57451;52.496;13.456;2023-04-24T10:41:43;18.20;49.80
70079;DHT22;57451;52.496;13.456;2023-04-24T10:44:12;18.20;51.00
70079;DHT22;57451;52.496;13.456;2023-04-24T10:46:44;18.10;50.30
70079;DHT22;57451;52.496;13.456;2023-04-24T10:49:12;18.00;50.70
70079;DHT22;57451;52.496;13.456;2023-04-24T10:51:47;18.10;50.10
70079;DHT22;57451;52.496;13.456;2023-04-24T10:54:25;18.00;49.00
70079;DHT22;57451;52.496;13.456;2023-04-24T10:56:56;17.90;49.20
70079;DHT22;57451;52.496;13.456;2023-04-24T10:59:41;17.80;49.70
70079;DHT22;57451;52.496;13.456;2023-04-24T11:02:10;17.80;50.70
70079;DHT22;57451;52.496;13.456;2023-04-24T11:04:53;17.70;50.30
70079;DHT22;57451;52.496;13.456;2023-04-24T11:07:24;17.70;50.70
70079;DHT22;57451;52.496;13.456;2023-04-24T11:09:58;17.80;51.80
70079;DHT22;57451;52.496;13.456;2023-04-24T11:12:28;17.80;51.30
70079;DHT22;57451;52.496;13.456;2023-04-24T11:15:00;17.90;50.60
70079;DHT22;57451;52.496;13.456;2023-04-24T11:17:32;17.90;51.30
70079;DHT22;57451;52.496;13.456;2023-04-24T11:20:03;18.00;50.70
70079;DHT22;57451;52.496;13.456;2023-04-24T11:22:53;18.20;51.00
70079;DHT22;57451;52.496;13.456;2023-04-24T11:25:24;18.30;51.00
70079;DHT22;57451;52.496;13.456;2023-04-24T11:28:03;18.40;50.20
70079;DHT22;57451;52.496;13.456;2023-04-24T11:30:32;18.40;50.00
70079;DHT22;57451;52.496;13.456;2023-04-24T11:33:04;18.30;49.80
70079;DHT22;57451;52.496;13.456;2023-04-24T11:35:39;18.30;49.60
70079;DHT22;57451;52.496;13.456;2023-04-24T11:38:07;18.20;49.90
70079;DHT22;57451;52.496;13.456;2023-04-24T11:40:51;17.90;55.90
70079;DHT22;57451;52.496;13.456;2023-04-24T11:43:19;17.40;60.50
70079;DHT22;57451;52.496;13.456;2023-04-24T11:45:48;17.10;57.10
70079;DHT22;57451;52.496;13.456;2023-04-24T11:48:18;17.00;58.20
70079;DHT22;57451;52.496;13.456;2023-04-24T11:50:50;16.80;59.30
70079;DHT22;57451;52.496;13.456;2023-04-24T11:53:19;17.10;60.80
70079;DHT22;57451;52.496;13.456;2023-04-24T11:55:46;17.20;61.40
70079;DHT22;57451;52.496;13.456;2023-04-24T11:58:13;17.40;59.90
70079;DHT22;57451;52.496;13.456;2023-04-24T12:00:40;17.80;60.50
70079;DHT22;57451;52.496;13.456;2023-04-24T12:03:09;18.30;59.50
70079;DHT22;57451;52.496;13.456;2023-04-24T12:05:38;18.80;56.30
70079;DHT22;57451;52.496;13.456;2023-04-24T12:08:07;19.10;55.20
70079;DHT22;57451;52.496;13.456;2023-04-24T12:10:35;19.50;54.70
70079;DHT22;57451;52.496;13.456;2023-04-24T12:13:03;19.80;52.90
70079;DHT22;57451;52.496;13.456;2023-04-24T12:15:30;20.10;52.90
70079;DHT22;57451;52.496;13.456;2023-04-24T12:17:57;20.50;52.10
70079;DHT22;57451;52.496;13.456;2023-04-24T12:20:26;20.70;49.00
70079;DHT22;57451;52.496;13.456;2023-04-24T12:22:55;20.80;48.20
70079;DHT22;57451;52.496;13.456;2023-04-24T12:25:25;20.80;48.90
70079;DHT22;57451;52.496;13.456;2023-04-24T12:27:54;20.90;47.50
70079;DHT22;57451;52.496;13.456;2023-04-24T12:30:26;21.00;48.00
70079;DHT22;57451;52.496;13.456;2023-04-24T12:32:57;20.90;47.10
70079;DHT22;57451;52.496;13.456;2023-04-24T12:35:26;20.70;47.20
70079;DHT22;57451;52.496;13.456;2023-04-24T12:37:54;20.80;47.40
70079;DHT22;57451;52.496;13.456;2023-04-24T12:40:21;20.80;46.60
70079;DHT22;57451;52.496;13.456;2023-04-24T12:42:53;21.00;47.50
70079;DHT22;57451;52.496;13.456;2023-04-24T12:45:22;21.00;46.70
70079;DHT22;57451;52.496;13.456;2023-04-24T12:47:52;21.00;44.60
70079;DHT22;57451;52.496;13.456;2023-04-24T12:50:19;20.90;41.60
70079;DHT22;57451;52.496;13.456;2023-04-24T12:52:47;20.40;40.20
70079;DHT22;57451;52.496;13.456;2023-04-24T12:55:14;20.40;40.30
70079;DHT22;57451;52.496;13.456;2023-04-24T12:57:41;20.20;41.30
70079;DHT22;57451;52.496;13.456;2023-04-24T13:00:11;19.90;40.60
70079;DHT22;57451;52.496;13.456;2023-04-24T13:02:38;19.90;39.10
70079;DHT22;57451;52.496;13.456;2023-04-24T13:05:06;19.80;41.30
70079;DHT22;57451;52.496;13.456;2023-04-24T13:07:33;19.70;39.90
70079;DHT22;57451;52.496;13.456;2023-04-24T13:10:01;19.70;41.20
70079;DHT22;57451;52.496;13.456;2023-04-24T13:12:28;19.80;39.30
70079;DHT22;57451;52.496;13.456;2023-04-24T13:14:57;19.70;39.30
70079;DHT22;57451;52.496;13.456;2023-04-24T13:17:26;19.70;39.30
70079;DHT22;57451;52.496;13.456;2023-04-24T13:19:54;19.80;39.50
70079;DHT22;57451;52.496;13.456;2023-04-24T13:22:21;20.00;37.90
70079;DHT22;57451;52.496;13.456;2023-04-24T13:24:49;20.30;37.40
70079;DHT22;57451;52.496;13.456;2023-04-24T13:27:16;20.50;38.40
70079;DHT22;57451;52.496;13.456;2023-04-24T13:29:44;20.60;35.90
70079;DHT22;57451;52.496;13.456;2023-04-24T13:32:11;20.70;36.50
70079;DHT22;57451;52.496;13.456;2023-04-24T13:34:40;20.80;35.20
70079;DHT22;57451;52.496;13.456;2023-04-24T13:37:07;20.90;36.50
70079;DHT22;57451;52.496;13.456;2023-04-24T13:39:35;21.20;35.00
70079;DHT22;57451;52.496;13.456;2023-04-24T13:42:02;21.40;33.50
70079;DHT22;57451;52.496;13.456;2023-04-24T13:44:31;21.50;33.80
70079;DHT22;57451;52.496;13.456;2023-04-24T13:46:59;21.30;33.00
70079;DHT22;57451;52.496;13.456;2023-04-24T13:49:26;21.40;33.40
70079;DHT22;57451;52.496;13.456;2023-04-24T13:51:55;21.50;33.60
70079;DHT22;57451;52.496;13.456;2023-04-24T13:54:22;21.70;33.10
70079;DHT22;57451;52.496;13.456;2023-04-24T13:56:51;21.60;32.90
70079;DHT22;57451;52.496;13.456;2023-04-24T13:59:19;21.60;33.90
70079;DHT22;57451;52.496;13.456;2023-04-24T14:01:47;21.80;33.60
70079;DHT22;57451;52.496;13.456;2023-04-24T14:04:15;22.00;32.90
70079;DHT22;57451;52.496;13.456;2023-04-24T14:06:43;22.00;32.90
70079;DHT22;57451;52.496;13.456;2023-04-24T14:09:12;22.00;34.50
70079;DHT22;57451;52.496;13.456;2023-04-24T14:11:40;22.20;33.70
70079;DHT22;57451;52.496;13.456;2023-04-24T14:14:07;22.20;34.60
70079;DHT22;57451;52.496;13.456;2023-04-24T14:16:35;22.30;33.00
70079;DHT22;57451;52.496;13.456;2023-04-24T14:19:02;22.20;34.10
70079;DHT22;57451;52.496;13.456;2023-04-24T14:21:29;22.30;35.30
70079;DHT22;57451;52.496;13.456;2023-04-24T14:23:57;22.20;33.70
70079;DHT22;57451;52.496;13.456;2023-04-24T14:26:25;22.00;33.70
70079;DHT22;57451;52.496;13.456;2023-04-24T14:28:53;21.70;33.80
70079;DHT22;57451;52.496;13.456;2023-04-24T14:31:37;21.50;33.60
70079;DHT22;57451;52.496;13.456;2023-04-24T14:34:04;21.30;35.00
70079;DHT22;57451;52.496;13.456;2023-04-24T14:36:32;21.30;35.10
70079;DHT22;57451;52.496;13.456;2023-04-24T14:38:59;21.20;34.50
70079;DHT22;57451;52.496;13.456;2023-04-24T14:41:27;21.00;33.90
70079;DHT22;57451;52.496;13.456;2023-04-24T14:43:55;20.80;34.00
70079;DHT22;57451;52.496;13.456;2023-04-24T14:46:22;20.50;33.30
70079;DHT22;57451;52.496;13.456;2023-04-24T14:48:49;20.30;35.50
70079;DHT22;57451;52.496;13.456;2023-04-24T14:51:16;20.30;35.40
70079;DHT22;57451;52.496;13.456;2023-04-24T14:53:44;20.20;35.90
70079;DHT22;57451;52.496;13.456;2023-04-24T14:56:14;20.10;36.00
70079;DHT22;57451;52.496;13.456;2023-04-24T14:58:43;20.30;35.80
70079;DHT22;57451;52.496;13.456;2023-04-24T15:01:10;20.30;36.10
70079;DHT22;57451;52.496;13.456;2023-04-24T15:03:37;20.40;36.20
70079;DHT22;57451;52.496;13.456;2023-04-24T15:06:05;20.40;35.90
70079;DHT22;57451;52.496;13.456;2023-04-24T15:08:33;20.30;35.40
70079;DHT22;57451;52.496;13.456;2023-04-24T15:11:00;20.20;35.20
70079;DHT22;57451;52.496;13.456;2023-04-24T15:13:28;19.90;35.80
70079;DHT22;57451;52.496;13.456;2023-04-24T15:15:56;19.60;36.20
70079;DHT22;57451;52.496;13.456;2023-04-24T15:18:23;19.40;36.60
70079;DHT22;57451;52.496;13.456;2023-04-24T15:20:51;19.30;36.90
70079;DHT22;57451;52.496;13.456;2023-04-24T15:23:18;19.20;37.20
70079;DHT22;57451;52.496;13.456;2023-04-24T15:25:46;19.10;37.40
70079;DHT22;57451;52.496;13.456;2023-04-24T15:28:13;19.00;37.30